Hatton, ND

5:58 AM CST on February 01, 2015 (GMT -0600)
NDDOT Buxton I-29 MP 114 | Change Station
CLOSE
Current Station
Personal Weather Station
Location: Buxton, ND
Elevation: 930 ft
Nearby Weather Stations
Active Advisory: Wind Chill Advisory

Elev 930 ft 47.54 °N, 97.08 °W | Updated 56 minutes ago

Mostly Cloudy
Mostly Cloudy
-10 °F
Feels Like -32 °F
N
14
Wind Variable Wind from North
Gusts 22.0 mph

Today
High -- | Low -- °F
--% Chance of Precip.
Yesterday
High -- | Low -- °F
Precip. -- in
7:56 AM 5:30 PM
Waxing Gibbous, 94% visible
Pressure 30.68 in
Visibility 10.0 miles
Clouds Few 10000 ft
Windchill -32 °F
Dew Point -16 °F
Humidity 74%
Rainfall -999.00 in
Snow Depth Not available.
UV 0 out of 12
Pollen .10 out of 12
Air Quality Not available.
Flu Activity Not available.
METAR KRDR 011058Z AUTO 02011KT 10SM FEW100 M24/M29 A3057 RMK AO2 SLP389 T12451293

More Conditions Fewer Conditions

Pressure 30.68 in
Visibility 10.0 miles
Clouds Few 10000 ft
Windchill -32 °F
Dew Point -16 °F
Humidity 74%
Rainfall -999.00 in
Snow Depth Not available.
UV 0 out of 12
Pollen .10 out of 12
Air Quality Not available.
Flu Activity Not available.
METAR KRDR 011058Z AUTO 02011KT 10SM FEW100 M24/M29 A3057 RMK AO2 SLP389 T12451293

More Conditions Fewer Conditions

10-Day Weather Forecast

Almanac

Astronomy

Feb. 01, 2015 Rise Set
Actual Time
Civil Twilight
Nautical Twilight
Astronomical Twilight
Moon
Length of Visible Light
Length of Day
Tomorrow will be .
, % of the Moon is Illuminated

Today's Extremes

State Highs State Lows

Community

WunderPhotos

Upload Photos

1,792,346 photos uploaded!

WunderBlogs® & News

Nearby

Air Quality

  Air Quality AQ Index Pollutant
Not available.

Snow Depth

Station Depth Elevation

Earthquake Activity

City Distance Mag. Time & Date
Minimum magnitude displayed is 2.5.

Coastal Water Temperatures

Place Temperature

Nearby Weather Stations